BBC585 WSSS-VGHS
Flight info
| Callsign | BBC585 |
|---|---|
| Flight time | N/A |
| Altitude | 34000 |
| Route | VMR6A VMR B469 VPK M751 VKB M626 BGO G463 CTG B594 ONEKA G463 KANDI |
| Aircraft | B738/M-SDE2E3FGHIRWXY/LB1 |
Departure
| Time | 2026-05-04 00:12 |
|---|---|
| Airport | Singapore Changi Airport (WSSS) |
Arrival
| Time | N/A |
|---|---|
| Airport | Hazrat Shahjalal International Airport (VGHS) |
| Time | Latitude | Longitude | Altitude | Speed | Heading |
|---|---|---|---|---|---|
| 2026-05-03 23:27 | 1.35343 | 103.98437 | 32 ft | 0 kts | 112° |
| 2026-05-03 23:56 | 1.35343 | 103.98435 | 32 ft | 2 kts | 112° |
| 2026-05-03 23:56 | 1.35353 | 103.98412 | 30 ft | 4 kts | 112° |
| 2026-05-03 23:56 | 1.35363 | 103.98386 | 30 ft | 4 kts | 111° |
| 2026-05-03 23:56 | 1.35373 | 103.98361 | 29 ft | 4 kts | 111° |
| 2026-05-03 23:57 | 1.35383 | 103.98336 | 29 ft | 4 kts | 112° |
| 2026-05-03 23:57 | 1.35394 | 103.98311 | 31 ft | 4 kts | 117° |
| 2026-05-03 23:57 | 1.35409 | 103.98290 | 30 ft | 4 kts | 142° |
| 2026-05-03 23:57 | 1.35429 | 103.98280 | 32 ft | 4 kts | 169° |
| 2026-05-03 23:58 | 1.35456 | 103.98280 | 30 ft | 4 kts | 193° |
| 2026-05-03 23:58 | 1.35481 | 103.98288 | 31 ft | 4 kts | 203° |
| 2026-05-03 23:58 | 1.35492 | 103.98293 | 31 ft | 0 kts | 203° |
| 2026-05-04 00:00 | 1.35484 | 103.98289 | 30 ft | 3 kts | 203° |
| 2026-05-04 00:01 | 1.35457 | 103.98278 | 32 ft | 6 kts | 203° |
| 2026-05-04 00:01 | 1.35413 | 103.98259 | 30 ft | 8 kts | 203° |
| 2026-05-04 00:01 | 1.35355 | 103.98234 | 32 ft | 10 kts | 203° |
| 2026-05-04 00:01 | 1.35292 | 103.98211 | 31 ft | 0 kts | 195° |
| 2026-05-04 00:02 | 1.35273 | 103.98201 | 32 ft | 7 kts | 205° |
| 2026-05-04 00:02 | 1.35209 | 103.98174 | 32 ft | 13 kts | 203° |
| 2026-05-04 00:02 | 1.35108 | 103.98131 | 30 ft | 18 kts | 203° |
| 2026-05-04 00:02 | 1.35030 | 103.98095 | 31 ft | 0 kts | 210° |
| 2026-05-04 00:03 | 1.35023 | 103.98092 | 32 ft | 3 kts | 200° |
| 2026-05-04 00:03 | 1.34978 | 103.98075 | 32 ft | 11 kts | 200° |
| 2026-05-04 00:03 | 1.34888 | 103.98040 | 32 ft | 16 kts | 203° |
| 2026-05-04 00:03 | 1.34779 | 103.97994 | 32 ft | 18 kts | 202° |
| 2026-05-04 00:04 | 1.34714 | 103.97985 | 32 ft | 7 kts | 153° |
| 2026-05-04 00:04 | 1.34686 | 103.98028 | 31 ft | 8 kts | 113° |
| 2026-05-04 00:04 | 1.34660 | 103.98092 | 10 ft | 12 kts | 112° |
| 2026-05-04 00:04 | 1.34622 | 103.98185 | 36 ft | 16 kts | 112° |
| 2026-05-04 00:05 | 1.34581 | 103.98283 | 49 ft | 15 kts | 113° |
| 2026-05-04 00:05 | 1.34537 | 103.98387 | 47 ft | 18 kts | 113° |
| 2026-05-04 00:05 | 1.34479 | 103.98524 | 36 ft | 23 kts | 113° |
| 2026-05-04 00:05 | 1.34422 | 103.98651 | 32 ft | 19 kts | 112° |
| 2026-05-04 00:06 | 1.34371 | 103.98773 | 32 ft | 18 kts | 112° |
| 2026-05-04 00:06 | 1.34333 | 103.98862 | 32 ft | 10 kts | 114° |
| 2026-05-04 00:06 | 1.34277 | 103.98892 | 32 ft | 10 kts | 188° |
| 2026-05-04 00:06 | 1.34210 | 103.98863 | 32 ft | 11 kts | 203° |
| 2026-05-04 00:07 | 1.34131 | 103.98831 | 32 ft | 13 kts | 202° |
| 2026-05-04 00:07 | 1.34035 | 103.98791 | 31 ft | 17 kts | 203° |
| 2026-05-04 00:07 | 1.33921 | 103.98743 | 31 ft | 19 kts | 203° |
| 2026-05-04 00:07 | 1.33792 | 103.98688 | 32 ft | 21 kts | 203° |
| 2026-05-04 00:08 | 1.33669 | 103.98636 | 31 ft | 11 kts | 203° |
| 2026-05-04 00:08 | 1.33591 | 103.98603 | 31 ft | 14 kts | 201° |
| 2026-05-04 00:08 | 1.33494 | 103.98565 | 31 ft | 17 kts | 201° |
| 2026-05-04 00:08 | 1.33377 | 103.98517 | 30 ft | 20 kts | 203° |
| 2026-05-04 00:09 | 1.33242 | 103.98459 | 32 ft | 22 kts | 203° |
| 2026-05-04 00:09 | 1.33106 | 103.98400 | 32 ft | 22 kts | 202° |
| 2026-05-04 00:09 | 1.33000 | 103.98356 | 32 ft | 10 kts | 199° |
| 2026-05-04 00:09 | 1.32954 | 103.98374 | 31 ft | 8 kts | 126° |
| 2026-05-04 00:10 | 1.32935 | 103.98415 | 31 ft | 7 kts | 114° |
| 2026-05-04 00:10 | 1.32909 | 103.98473 | 31 ft | 10 kts | 114° |
| 2026-05-04 00:10 | 1.32912 | 103.98514 | 31 ft | 5 kts | 44° |
| 2026-05-04 00:10 | 1.32945 | 103.98528 | 32 ft | 6 kts | 23° |
| 2026-05-04 00:11 | 1.33022 | 103.98561 | 32 ft | 30 kts | 22° |
| 2026-05-04 00:11 | 1.33443 | 103.98737 | 30 ft | 100 kts | 22° |
| 2026-05-04 00:11 | 1.34269 | 103.99087 | 33 ft | 156 kts | 23° |
| 2026-05-04 00:11 | 1.35415 | 103.99559 | 238 ft | 190 kts | 24° |
| 2026-05-04 00:12 | 1.36557 | 104.00082 | 1269 ft | 175 kts | 23° |
| 2026-05-04 00:12 | 1.37697 | 104.00563 | 1880 ft | 188 kts | 22° |
| 2026-05-04 00:12 | 1.39003 | 104.01105 | 2137 ft | 216 kts | 22° |
| 2026-05-04 00:12 | 1.40457 | 104.01711 | 2366 ft | 236 kts | 22° |
| 2026-05-04 00:13 | 1.42008 | 104.02360 | 2853 ft | 245 kts | 22° |
| 2026-05-04 00:13 | 1.43625 | 104.03038 | 3173 ft | 264 kts | 22° |
| 2026-05-04 00:13 | 1.45369 | 104.03771 | 3814 ft | 271 kts | 22° |
| 2026-05-04 00:13 | 1.47110 | 104.04503 | 4646 ft | 272 kts | 22° |
| 2026-05-04 00:14 | 1.48952 | 104.04943 | 5379 ft | 275 kts | 359° |
| 2026-05-04 00:14 | 1.50822 | 104.04591 | 6125 ft | 276 kts | 336° |
| 2026-05-04 00:14 | 1.52548 | 104.03731 | 6842 ft | 279 kts | 331° |
| 2026-05-04 00:14 | 1.54262 | 104.02793 | 7533 ft | 283 kts | 330° |
| 2026-05-04 00:15 | 1.55994 | 104.01834 | 8229 ft | 286 kts | 330° |
| 2026-05-04 00:15 | 1.57722 | 104.00881 | 8939 ft | 289 kts | 331° |
| 2026-05-04 00:15 | 1.59491 | 103.99913 | 9644 ft | 292 kts | 331° |
| 2026-05-04 00:15 | 1.61292 | 103.98932 | 10266 ft | 298 kts | 332° |
| 2026-05-04 00:16 | 1.63178 | 103.97910 | 10462 ft | 320 kts | 332° |
| 2026-05-04 00:16 | 1.65197 | 103.96818 | 10616 ft | 340 kts | 332° |
| 2026-05-04 00:16 | 1.67335 | 103.95663 | 10814 ft | 357 kts | 332° |
| 2026-05-04 00:16 | 1.69550 | 103.94467 | 11254 ft | 364 kts | 332° |
| 2026-05-04 00:17 | 1.71788 | 103.93260 | 11823 ft | 368 kts | 332° |
| 2026-05-04 00:17 | 1.74055 | 103.92037 | 12393 ft | 371 kts | 333° |
| 2026-05-04 00:17 | 1.76459 | 103.91106 | 12897 ft | 374 kts | 351° |
| 2026-05-04 00:17 | 1.79049 | 103.90869 | 13477 ft | 375 kts | 358° |
| 2026-05-04 00:18 | 1.81669 | 103.90723 | 13979 ft | 379 kts | 358° |
| 2026-05-04 00:18 | 1.84311 | 103.90586 | 14464 ft | 382 kts | 358° |
| 2026-05-04 00:18 | 1.86977 | 103.90443 | 14945 ft | 385 kts | 358° |
| 2026-05-04 00:18 | 1.89660 | 103.90291 | 15420 ft | 388 kts | 358° |
| 2026-05-04 00:19 | 1.92358 | 103.90131 | 15887 ft | 391 kts | 358° |
| 2026-05-04 00:19 | 1.95088 | 103.89963 | 16364 ft | 393 kts | 358° |
| 2026-05-04 00:19 | 1.97831 | 103.89792 | 16826 ft | 396 kts | 358° |
| 2026-05-04 00:19 | 2.00591 | 103.89618 | 17266 ft | 399 kts | 358° |
| 2026-05-04 00:20 | 2.03382 | 103.89442 | 17702 ft | 402 kts | 358° |
| 2026-05-04 00:20 | 2.06180 | 103.89265 | 18136 ft | 405 kts | 358° |
| 2026-05-04 00:20 | 2.09008 | 103.89086 | 18499 ft | 408 kts | 358° |
| 2026-05-04 00:20 | 2.11856 | 103.88905 | 18875 ft | 410 kts | 358° |
| 2026-05-04 00:21 | 2.14676 | 103.88727 | 19243 ft | 413 kts | 358° |
| 2026-05-04 00:21 | 2.17549 | 103.88545 | 19610 ft | 415 kts | 358° |
| 2026-05-04 00:21 | 2.20476 | 103.88360 | 19967 ft | 417 kts | 358° |
| 2026-05-04 00:21 | 2.23390 | 103.88175 | 20316 ft | 420 kts | 358° |
| 2026-05-04 00:22 | 2.26273 | 103.87993 | 20662 ft | 422 kts | 358° |
| 2026-05-04 00:22 | 2.29214 | 103.87807 | 20997 ft | 425 kts | 358° |
| 2026-05-04 00:22 | 2.32181 | 103.87619 | 21337 ft | 427 kts | 358° |
| 2026-05-04 00:22 | 2.35149 | 103.87431 | 21680 ft | 429 kts | 358° |
| 2026-05-04 00:23 | 2.38143 | 103.87205 | 21992 ft | 432 kts | 353° |
| 2026-05-04 00:23 | 2.41035 | 103.86342 | 22273 ft | 437 kts | 336° |
| 2026-05-04 00:23 | 2.43791 | 103.85049 | 22635 ft | 439 kts | 335° |
| 2026-05-04 00:23 | 2.46560 | 103.83731 | 22928 ft | 441 kts | 335° |
| 2026-05-04 00:24 | 2.49346 | 103.82415 | 23198 ft | 444 kts | 335° |
| 2026-05-04 00:24 | 2.52150 | 103.81108 | 23503 ft | 446 kts | 336° |
| 2026-05-04 00:24 | 2.54978 | 103.79805 | 23753 ft | 448 kts | 336° |
| 2026-05-04 00:24 | 2.57816 | 103.78505 | 24020 ft | 449 kts | 336° |
| 2026-05-04 00:25 | 2.60661 | 103.77205 | 24279 ft | 450 kts | 336° |
| 2026-05-04 00:25 | 2.63517 | 103.75901 | 24524 ft | 452 kts | 336° |
| 2026-05-04 00:25 | 2.66384 | 103.74590 | 24772 ft | 454 kts | 336° |
| 2026-05-04 00:25 | 2.69260 | 103.73275 | 25005 ft | 455 kts | 336° |
| 2026-05-04 00:26 | 2.72145 | 103.71956 | 25254 ft | 456 kts | 336° |
| 2026-05-04 00:26 | 2.75009 | 103.70657 | 25500 ft | 457 kts | 336° |
| 2026-05-04 00:26 | 2.77917 | 103.69359 | 25741 ft | 459 kts | 336° |
| 2026-05-04 00:26 | 2.80840 | 103.68061 | 25967 ft | 460 kts | 336° |
| 2026-05-04 00:27 | 2.83769 | 103.66759 | 26196 ft | 462 kts | 336° |
| 2026-05-04 00:27 | 2.86706 | 103.65450 | 26419 ft | 463 kts | 336° |
| 2026-05-04 00:27 | 2.89650 | 103.64136 | 26632 ft | 464 kts | 336° |
| 2026-05-04 00:27 | 2.92602 | 103.62818 | 26843 ft | 466 kts | 336° |
| 2026-05-04 00:28 | 2.95566 | 103.61496 | 27069 ft | 467 kts | 336° |
| 2026-05-04 00:28 | 2.98534 | 103.60172 | 27276 ft | 468 kts | 336° |
| 2026-05-04 00:28 | 3.01510 | 103.58845 | 27479 ft | 469 kts | 336° |
| 2026-05-04 00:28 | 3.04498 | 103.57512 | 27677 ft | 470 kts | 336° |
| 2026-05-04 00:29 | 3.07493 | 103.56175 | 27870 ft | 472 kts | 336° |
| 2026-05-04 00:29 | 3.10496 | 103.54835 | 28062 ft | 473 kts | 336° |
| 2026-05-04 00:29 | 3.13503 | 103.53493 | 28251 ft | 474 kts | 336° |
| 2026-05-04 00:29 | 3.16517 | 103.52147 | 28423 ft | 475 kts | 336° |
| 2026-05-04 00:30 | 3.19545 | 103.50786 | 28613 ft | 477 kts | 336° |
| 2026-05-04 00:30 | 3.22556 | 103.49429 | 28780 ft | 478 kts | 336° |
| 2026-05-04 00:30 | 3.25605 | 103.48052 | 28954 ft | 479 kts | 336° |
| 2026-05-04 00:30 | 3.28641 | 103.46682 | 29121 ft | 480 kts | 336° |
| 2026-05-04 00:31 | 3.31689 | 103.45307 | 29276 ft | 481 kts | 336° |
| 2026-05-04 00:31 | 3.34747 | 103.43928 | 29475 ft | 481 kts | 336° |
| 2026-05-04 00:31 | 3.37800 | 103.42552 | 29738 ft | 480 kts | 336° |
| 2026-05-04 00:31 | 3.40852 | 103.41204 | 30017 ft | 478 kts | 338° |
| 2026-05-04 00:32 | 3.43936 | 103.39942 | 30236 ft | 478 kts | 339° |
| 2026-05-04 00:32 | 3.47031 | 103.38729 | 30436 ft | 477 kts | 339° |
| 2026-05-04 00:32 | 3.50123 | 103.37535 | 30651 ft | 476 kts | 339° |
| 2026-05-04 00:32 | 3.53211 | 103.36338 | 30873 ft | 475 kts | 339° |
| 2026-05-04 00:33 | 3.56289 | 103.35136 | 31107 ft | 474 kts | 339° |
| 2026-05-04 00:33 | 3.62417 | 103.32717 | 31569 ft | 473 kts | 339° |
| 2026-05-04 00:33 | 3.65431 | 103.31520 | 31793 ft | 472 kts | 339° |
| 2026-05-04 00:34 | 3.68478 | 103.30307 | 32031 ft | 471 kts | 339° |
| 2026-05-04 00:34 | 3.71518 | 103.29096 | 32272 ft | 470 kts | 339° |
| 2026-05-04 00:34 | 3.74558 | 103.27886 | 32512 ft | 469 kts | 339° |
| 2026-05-04 00:34 | 3.77591 | 103.26678 | 32736 ft | 468 kts | 339° |
| 2026-05-04 00:35 | 3.80614 | 103.25475 | 32979 ft | 467 kts | 339° |
| 2026-05-04 00:35 | 3.83631 | 103.24275 | 33220 ft | 466 kts | 339° |
| 2026-05-04 00:35 | 3.86639 | 103.23077 | 33473 ft | 465 kts | 339° |
| 2026-05-04 00:35 | 3.89650 | 103.21879 | 33728 ft | 464 kts | 339° |
| 2026-05-04 00:36 | 3.92647 | 103.20687 | 33891 ft | 464 kts | 339° |
| 2026-05-04 00:36 | 3.98669 | 103.18290 | 33891 ft | 465 kts | 339° |
| 2026-05-04 00:37 | 4.04671 | 103.15900 | 33898 ft | 462 kts | 339° |
| 2026-05-04 00:37 | 4.10635 | 103.13525 | 33904 ft | 460 kts | 339° |
| 2026-05-04 00:38 | 4.16574 | 103.11161 | 33905 ft | 459 kts | 339° |
| 2026-05-04 00:38 | 4.22500 | 103.08800 | 33912 ft | 458 kts | 339° |
| 2026-05-04 00:39 | 4.28422 | 103.06441 | 33918 ft | 458 kts | 339° |
| 2026-05-04 00:39 | 4.34359 | 103.04076 | 33919 ft | 460 kts | 339° |
| 2026-05-04 00:40 | 4.40281 | 103.01716 | 33923 ft | 462 kts | 339° |
| 2026-05-04 00:40 | 4.46262 | 102.99332 | 33930 ft | 463 kts | 339° |
| 2026-05-04 00:41 | 4.52266 | 102.96938 | 33927 ft | 465 kts | 339° |
| 2026-05-04 00:41 | 4.58289 | 102.94537 | 33927 ft | 466 kts | 339° |
| 2026-05-04 00:42 | 4.63349 | 102.92519 | 33930 ft | 467 kts | 339° |
| 2026-05-04 00:42 | 4.69392 | 102.90108 | 33930 ft | 467 kts | 339° |
| 2026-05-04 00:43 | 4.75398 | 102.87712 | 33927 ft | 467 kts | 338° |
| 2026-05-04 00:43 | 4.81436 | 102.85302 | 33926 ft | 467 kts | 338° |
| 2026-05-04 00:44 | 4.87469 | 102.82895 | 33928 ft | 466 kts | 339° |
| 2026-05-04 00:44 | 4.93496 | 102.80505 | 33928 ft | 465 kts | 339° |
| 2026-05-04 00:45 | 4.99508 | 102.78126 | 33930 ft | 464 kts | 339° |
| 2026-05-04 00:45 | 5.05511 | 102.75747 | 33928 ft | 464 kts | 339° |
| 2026-05-04 00:46 | 5.11508 | 102.73369 | 33927 ft | 463 kts | 339° |
| 2026-05-04 00:46 | 5.17463 | 102.71006 | 33927 ft | 463 kts | 339° |
| 2026-05-04 00:47 | 5.23450 | 102.68617 | 33929 ft | 463 kts | 338° |
| 2026-05-04 00:47 | 5.29413 | 102.66189 | 33925 ft | 463 kts | 338° |
| 2026-05-04 00:48 | 5.35387 | 102.63763 | 33928 ft | 463 kts | 338° |
| 2026-05-04 00:48 | 5.41381 | 102.61380 | 33927 ft | 463 kts | 339° |
| 2026-05-04 00:49 | 5.47378 | 102.59009 | 33930 ft | 464 kts | 339° |
| 2026-05-04 00:49 | 5.53375 | 102.56630 | 33926 ft | 464 kts | 339° |
| 2026-05-04 00:50 | 5.59378 | 102.54234 | 33926 ft | 464 kts | 338° |
| 2026-05-04 00:50 | 5.65375 | 102.51830 | 33924 ft | 464 kts | 338° |
| 2026-05-04 00:51 | 5.71368 | 102.49426 | 33924 ft | 464 kts | 338° |
| 2026-05-04 00:51 | 5.77366 | 102.47021 | 33921 ft | 464 kts | 338° |
| 2026-05-04 00:52 | 5.83362 | 102.44618 | 33923 ft | 464 kts | 338° |
| 2026-05-04 00:52 | 5.89352 | 102.42216 | 33910 ft | 464 kts | 338° |
| 2026-05-04 00:53 | 5.95348 | 102.39811 | 33903 ft | 464 kts | 338° |
| 2026-05-04 00:53 | 6.01305 | 102.37421 | 33895 ft | 464 kts | 338° |
| 2026-05-04 00:54 | 6.07297 | 102.35016 | 33885 ft | 464 kts | 339° |
| 2026-05-04 00:54 | 6.13298 | 102.32607 | 33887 ft | 464 kts | 339° |
| 2026-05-04 00:55 | 6.19223 | 102.30025 | 33881 ft | 465 kts | 334° |
| 2026-05-04 00:55 | 6.24973 | 102.27036 | 33888 ft | 465 kts | 333° |
| 2026-05-04 00:56 | 6.30732 | 102.24080 | 33891 ft | 465 kts | 333° |
| 2026-05-04 00:56 | 6.36493 | 102.21119 | 33898 ft | 465 kts | 333° |
| 2026-05-04 00:57 | 6.42256 | 102.18154 | 33905 ft | 465 kts | 333° |
| 2026-05-04 00:57 | 6.48029 | 102.15183 | 33911 ft | 465 kts | 333° |
| 2026-05-04 00:58 | 6.53785 | 102.12221 | 33912 ft | 465 kts | 333° |
| 2026-05-04 00:58 | 6.59549 | 102.09253 | 33911 ft | 465 kts | 333° |
| 2026-05-04 00:59 | 6.65308 | 102.06288 | 33912 ft | 465 kts | 333° |
| 2026-05-04 00:59 | 6.71071 | 102.03319 | 33911 ft | 465 kts | 333° |
| 2026-05-04 01:00 | 6.76821 | 102.00357 | 33908 ft | 465 kts | 333° |
| 2026-05-04 01:00 | 6.82575 | 101.97392 | 33916 ft | 464 kts | 333° |
| 2026-05-04 01:01 | 6.88324 | 101.94428 | 33921 ft | 464 kts | 333° |
| 2026-05-04 01:01 | 6.94071 | 101.91465 | 33924 ft | 464 kts | 333° |
| 2026-05-04 01:02 | 6.99792 | 101.88514 | 33923 ft | 465 kts | 333° |
| 2026-05-04 01:02 | 7.05547 | 101.85545 | 33924 ft | 465 kts | 334° |
| 2026-05-04 01:03 | 7.11303 | 101.82574 | 33922 ft | 465 kts | 334° |
| 2026-05-04 01:03 | 7.17049 | 101.79608 | 33925 ft | 465 kts | 334° |
| 2026-05-04 01:04 | 7.22832 | 101.76622 | 33924 ft | 466 kts | 333° |
| 2026-05-04 01:04 | 7.28602 | 101.73642 | 33927 ft | 466 kts | 334° |
| 2026-05-04 01:05 | 7.34382 | 101.70656 | 33925 ft | 467 kts | 334° |
| 2026-05-04 01:05 | 7.40162 | 101.67668 | 33928 ft | 467 kts | 334° |
| 2026-05-04 01:06 | 7.45939 | 101.64681 | 33929 ft | 467 kts | 333° |
| 2026-05-04 01:06 | 7.51693 | 101.61705 | 33930 ft | 468 kts | 333° |
| 2026-05-04 01:07 | 7.57492 | 101.58705 | 33927 ft | 468 kts | 333° |
| 2026-05-04 01:07 | 7.63294 | 101.55702 | 33928 ft | 468 kts | 333° |
| 2026-05-04 01:08 | 7.69092 | 101.52708 | 33925 ft | 469 kts | 334° |
| 2026-05-04 01:08 | 7.74912 | 101.49726 | 33929 ft | 469 kts | 334° |
| 2026-05-04 01:09 | 7.80732 | 101.46744 | 33929 ft | 469 kts | 334° |
| 2026-05-04 01:09 | 7.86551 | 101.43759 | 33935 ft | 469 kts | 334° |
| 2026-05-04 01:10 | 7.92374 | 101.40769 | 33928 ft | 470 kts | 333° |
| 2026-05-04 01:10 | 7.98197 | 101.37777 | 33928 ft | 470 kts | 333° |
| 2026-05-04 01:11 | 8.04022 | 101.34783 | 33933 ft | 470 kts | 334° |
| 2026-05-04 01:11 | 8.09849 | 101.31788 | 33930 ft | 470 kts | 333° |
| 2026-05-04 01:12 | 8.15672 | 101.28794 | 33930 ft | 470 kts | 333° |
| 2026-05-04 01:12 | 8.21490 | 101.25801 | 33928 ft | 470 kts | 333° |
| 2026-05-04 01:13 | 8.27276 | 101.22824 | 33931 ft | 470 kts | 333° |
| 2026-05-04 01:13 | 8.33095 | 101.19828 | 33930 ft | 469 kts | 333° |
| 2026-05-04 01:14 | 8.38917 | 101.16830 | 33929 ft | 469 kts | 333° |
| 2026-05-04 01:14 | 8.44736 | 101.13833 | 33929 ft | 470 kts | 333° |
| 2026-05-04 01:15 | 8.50560 | 101.10831 | 33929 ft | 470 kts | 333° |
| 2026-05-04 01:15 | 8.56377 | 101.07832 | 33932 ft | 470 kts | 333° |
| 2026-05-04 01:16 | 8.62208 | 101.04837 | 33928 ft | 470 kts | 333° |
| 2026-05-04 01:16 | 8.68041 | 101.01855 | 33928 ft | 470 kts | 333° |
| 2026-05-04 01:17 | 8.73834 | 100.98892 | 33933 ft | 470 kts | 333° |
| 2026-05-04 01:17 | 8.79713 | 100.95881 | 33931 ft | 470 kts | 333° |
| 2026-05-04 01:18 | 8.85546 | 100.92891 | 33928 ft | 470 kts | 333° |
| 2026-05-04 01:18 | 8.91380 | 100.89900 | 33927 ft | 470 kts | 333° |
| 2026-05-04 01:19 | 8.97210 | 100.86910 | 33932 ft | 470 kts | 333° |
| 2026-05-04 01:19 | 9.03008 | 100.83934 | 33930 ft | 470 kts | 333° |
| 2026-05-04 01:20 | 9.08838 | 100.80942 | 33931 ft | 470 kts | 333° |
| 2026-05-04 01:20 | 9.14679 | 100.77942 | 33931 ft | 470 kts | 333° |
| 2026-05-04 01:21 | 9.20514 | 100.74945 | 33932 ft | 470 kts | 333° |
| 2026-05-04 01:21 | 9.26350 | 100.71946 | 33930 ft | 471 kts | 333° |
| 2026-05-04 01:22 | 9.32193 | 100.68942 | 33933 ft | 471 kts | 333° |
| 2026-05-04 01:22 | 9.38035 | 100.65938 | 33934 ft | 471 kts | 333° |
| 2026-05-04 01:23 | 9.43885 | 100.62927 | 33930 ft | 471 kts | 333° |
| 2026-05-04 01:23 | 9.49739 | 100.59914 | 33933 ft | 472 kts | 333° |
| 2026-05-04 01:24 | 9.55593 | 100.56905 | 33934 ft | 472 kts | 334° |
| 2026-05-04 01:24 | 9.61457 | 100.53896 | 33931 ft | 472 kts | 334° |
| 2026-05-04 01:25 | 9.67328 | 100.50880 | 33932 ft | 473 kts | 334° |
| 2026-05-04 01:25 | 9.73207 | 100.47871 | 33934 ft | 473 kts | 334° |
| 2026-05-04 01:26 | 9.79062 | 100.44922 | 33930 ft | 473 kts | 334° |
| 2026-05-04 01:26 | 9.84954 | 100.41952 | 33929 ft | 473 kts | 334° |
| 2026-05-04 01:27 | 9.90840 | 100.38976 | 33928 ft | 473 kts | 334° |
| 2026-05-04 01:27 | 9.96723 | 100.35983 | 33933 ft | 473 kts | 334° |
| 2026-05-04 01:28 | 10.02604 | 100.32991 | 33928 ft | 473 kts | 334° |
| 2026-05-04 01:28 | 10.08491 | 100.30009 | 33930 ft | 472 kts | 334° |
| 2026-05-04 01:29 | 10.14368 | 100.27033 | 33931 ft | 472 kts | 334° |
| 2026-05-04 01:29 | 10.20243 | 100.24056 | 33927 ft | 472 kts | 334° |
| 2026-05-04 01:30 | 10.25132 | 100.21576 | 33928 ft | 472 kts | 333° |
| 2026-05-04 01:30 | 10.31006 | 100.18596 | 33927 ft | 471 kts | 333° |
| 2026-05-04 01:31 | 10.36871 | 100.15618 | 33930 ft | 471 kts | 333° |
| 2026-05-04 01:31 | 10.42732 | 100.12641 | 33928 ft | 471 kts | 333° |
| 2026-05-04 01:32 | 10.48591 | 100.09664 | 33930 ft | 471 kts | 333° |
| 2026-05-04 01:32 | 10.54452 | 100.06685 | 33926 ft | 471 kts | 333° |
| 2026-05-04 01:33 | 10.60315 | 100.03703 | 33927 ft | 471 kts | 333° |
| 2026-05-04 01:33 | 10.66169 | 100.00725 | 33926 ft | 471 kts | 333° |
| 2026-05-04 01:34 | 10.72037 | 99.97738 | 33921 ft | 471 kts | 333° |
| 2026-05-04 01:34 | 10.77861 | 99.94772 | 33927 ft | 471 kts | 333° |
| 2026-05-04 01:35 | 10.83726 | 99.91784 | 33923 ft | 472 kts | 333° |
| 2026-05-04 01:35 | 10.89591 | 99.88794 | 33923 ft | 472 kts | 333° |
| 2026-05-04 01:36 | 10.95464 | 99.85793 | 33922 ft | 472 kts | 333° |
| 2026-05-04 01:36 | 11.01321 | 99.82796 | 33916 ft | 471 kts | 333° |
| 2026-05-04 01:37 | 11.07178 | 99.79797 | 33915 ft | 471 kts | 333° |
| 2026-05-04 01:37 | 11.13023 | 99.76804 | 33921 ft | 469 kts | 333° |
| 2026-05-04 01:38 | 11.18836 | 99.73792 | 33908 ft | 468 kts | 332° |
| 2026-05-04 01:38 | 11.24616 | 99.70746 | 33908 ft | 466 kts | 332° |
| 2026-05-04 01:39 | 11.30373 | 99.67713 | 33909 ft | 465 kts | 332° |
| 2026-05-04 01:39 | 11.36112 | 99.64695 | 33909 ft | 464 kts | 332° |
| 2026-05-04 01:40 | 11.41841 | 99.61683 | 33914 ft | 463 kts | 332° |
| 2026-05-04 01:40 | 11.47519 | 99.58696 | 33921 ft | 462 kts | 332° |
| 2026-05-04 01:41 | 11.53267 | 99.55670 | 33921 ft | 462 kts | 332° |
| 2026-05-04 01:41 | 11.58944 | 99.52680 | 33932 ft | 462 kts | 332° |
| 2026-05-04 01:42 | 11.64662 | 99.49671 | 33935 ft | 463 kts | 332° |
| 2026-05-04 01:42 | 11.70406 | 99.46671 | 33935 ft | 464 kts | 332° |
| 2026-05-04 01:43 | 11.76177 | 99.43659 | 33941 ft | 466 kts | 332° |
| 2026-05-04 01:43 | 11.81955 | 99.40640 | 33939 ft | 467 kts | 332° |
| 2026-05-04 01:44 | 11.87753 | 99.37607 | 33946 ft | 468 kts | 332° |
| 2026-05-04 01:44 | 11.93561 | 99.34566 | 33944 ft | 469 kts | 332° |
| 2026-05-04 01:45 | 11.99375 | 99.31521 | 33952 ft | 470 kts | 332° |
| 2026-05-04 01:45 | 12.08100 | 99.26948 | 33945 ft | 469 kts | 332° |
| 2026-05-04 01:46 | 12.13867 | 99.23924 | 33940 ft | 468 kts | 332° |
| 2026-05-04 01:46 | 12.19651 | 99.20889 | 33941 ft | 467 kts | 332° |
| 2026-05-04 01:47 | 12.25421 | 99.17861 | 33937 ft | 465 kts | 332° |
| 2026-05-04 01:47 | 12.31171 | 99.14840 | 33933 ft | 464 kts | 332° |
| 2026-05-04 01:48 | 12.36900 | 99.11831 | 33927 ft | 462 kts | 332° |
| 2026-05-04 01:48 | 12.42609 | 99.08829 | 33929 ft | 461 kts | 332° |
| 2026-05-04 01:49 | 12.48307 | 99.05832 | 33930 ft | 460 kts | 332° |
| 2026-05-04 01:49 | 12.53992 | 99.02840 | 33934 ft | 459 kts | 332° |
| 2026-05-04 01:50 | 12.59673 | 98.99849 | 33927 ft | 459 kts | 332° |
| 2026-05-04 01:50 | 12.65347 | 98.96860 | 33941 ft | 459 kts | 332° |
| 2026-05-04 01:51 | 12.71037 | 98.93862 | 33940 ft | 460 kts | 331° |
| 2026-05-04 01:51 | 12.76701 | 98.90875 | 33932 ft | 461 kts | 331° |
| 2026-05-04 01:52 | 12.82409 | 98.87864 | 33938 ft | 462 kts | 331° |
| 2026-05-04 01:52 | 12.88131 | 98.84844 | 33940 ft | 463 kts | 331° |
| 2026-05-04 01:53 | 12.93872 | 98.81812 | 33931 ft | 464 kts | 331° |
| 2026-05-04 01:53 | 12.99611 | 98.78779 | 33934 ft | 464 kts | 331° |
| 2026-05-04 01:54 | 13.05361 | 98.75740 | 33930 ft | 464 kts | 331° |
| 2026-05-04 01:54 | 13.11093 | 98.72707 | 33934 ft | 463 kts | 331° |
| 2026-05-04 01:55 | 13.16808 | 98.69683 | 33927 ft | 462 kts | 330° |
| 2026-05-04 01:55 | 13.22518 | 98.66660 | 33933 ft | 460 kts | 330° |
| 2026-05-04 01:56 | 13.28166 | 98.63667 | 33936 ft | 459 kts | 330° |
| 2026-05-04 01:56 | 13.33867 | 98.60645 | 33935 ft | 458 kts | 330° |
| 2026-05-04 01:57 | 13.39496 | 98.57659 | 33940 ft | 457 kts | 330° |
| 2026-05-04 01:57 | 13.45143 | 98.54662 | 33933 ft | 457 kts | 330° |
| 2026-05-04 01:58 | 13.50789 | 98.51668 | 33933 ft | 457 kts | 330° |
| 2026-05-04 01:58 | 13.56461 | 98.48710 | 33931 ft | 457 kts | 330° |
| 2026-05-04 01:59 | 13.62140 | 98.45762 | 33941 ft | 457 kts | 330° |
| 2026-05-04 01:59 | 13.67817 | 98.42806 | 33928 ft | 457 kts | 330° |
| 2026-05-04 02:00 | 13.73480 | 98.39852 | 33928 ft | 457 kts | 330° |
| 2026-05-04 02:00 | 13.79147 | 98.36892 | 33938 ft | 457 kts | 330° |
| 2026-05-04 02:01 | 13.84826 | 98.33925 | 33947 ft | 458 kts | 330° |
| 2026-05-04 02:01 | 13.90525 | 98.30946 | 33942 ft | 460 kts | 330° |
| 2026-05-04 02:02 | 13.96228 | 98.27964 | 33932 ft | 460 kts | 330° |
| 2026-05-04 02:02 | 14.01907 | 98.24992 | 33943 ft | 461 kts | 330° |
| 2026-05-04 02:03 | 14.07634 | 98.21993 | 33939 ft | 461 kts | 330° |
| 2026-05-04 02:03 | 14.13357 | 98.18993 | 33935 ft | 461 kts | 330° |
| 2026-05-04 02:04 | 14.19067 | 98.15992 | 33940 ft | 461 kts | 330° |
| 2026-05-04 02:04 | 14.24781 | 98.12985 | 33936 ft | 461 kts | 330° |
| 2026-05-04 02:05 | 14.30487 | 98.09982 | 33934 ft | 460 kts | 330° |
| 2026-05-04 02:05 | 14.36179 | 98.06984 | 33931 ft | 459 kts | 330° |
| 2026-05-04 02:06 | 14.41854 | 98.03992 | 33925 ft | 458 kts | 330° |
| 2026-05-04 02:06 | 14.47520 | 98.01005 | 33929 ft | 458 kts | 330° |
| 2026-05-04 02:07 | 14.53192 | 97.98012 | 33927 ft | 457 kts | 330° |
| 2026-05-04 02:07 | 14.58853 | 97.95023 | 33927 ft | 457 kts | 330° |
| 2026-05-04 02:08 | 14.64521 | 97.92029 | 33928 ft | 458 kts | 330° |
| 2026-05-04 02:08 | 14.70191 | 97.89032 | 33925 ft | 457 kts | 329° |
| 2026-05-04 02:09 | 14.75850 | 97.86037 | 33932 ft | 457 kts | 330° |
| 2026-05-04 02:09 | 14.81502 | 97.83043 | 33936 ft | 456 kts | 329° |
| 2026-05-04 02:10 | 14.87157 | 97.80044 | 33941 ft | 457 kts | 329° |
| 2026-05-04 02:10 | 14.92775 | 97.77064 | 33930 ft | 457 kts | 329° |
| 2026-05-04 02:11 | 14.98435 | 97.74059 | 33936 ft | 457 kts | 329° |
| 2026-05-04 02:11 | 15.04088 | 97.71052 | 33933 ft | 457 kts | 329° |
| 2026-05-04 02:12 | 15.09740 | 97.68042 | 33934 ft | 457 kts | 329° |
| 2026-05-04 02:12 | 15.15404 | 97.65025 | 33934 ft | 457 kts | 329° |
| 2026-05-04 02:13 | 15.21066 | 97.62007 | 33933 ft | 458 kts | 329° |
| 2026-05-04 02:13 | 15.26727 | 97.58987 | 33933 ft | 458 kts | 329° |
| 2026-05-04 02:14 | 15.32395 | 97.55962 | 33930 ft | 458 kts | 329° |
| 2026-05-04 02:14 | 15.38057 | 97.52938 | 33930 ft | 458 kts | 329° |
| 2026-05-04 02:15 | 15.43698 | 97.49924 | 33932 ft | 459 kts | 329° |
| 2026-05-04 02:15 | 15.49394 | 97.46942 | 33928 ft | 459 kts | 330° |
| 2026-05-04 02:16 | 15.55132 | 97.44002 | 33931 ft | 459 kts | 330° |
| 2026-05-04 02:16 | 15.60863 | 97.41062 | 33927 ft | 460 kts | 330° |
| 2026-05-04 02:17 | 15.66600 | 97.38107 | 33927 ft | 460 kts | 330° |
| 2026-05-04 02:17 | 15.71362 | 97.35648 | 33931 ft | 460 kts | 330° |
| 2026-05-04 02:18 | 15.77089 | 97.32688 | 33930 ft | 460 kts | 330° |
| 2026-05-04 02:18 | 15.82832 | 97.29718 | 33931 ft | 460 kts | 330° |
| 2026-05-04 02:19 | 15.88562 | 97.26753 | 33934 ft | 461 kts | 330° |
| 2026-05-04 02:19 | 15.94305 | 97.23780 | 33933 ft | 461 kts | 330° |
| 2026-05-04 02:20 | 16.00041 | 97.20809 | 33932 ft | 461 kts | 330° |
| 2026-05-04 02:20 | 16.05784 | 97.17831 | 33934 ft | 461 kts | 330° |
| 2026-05-04 02:21 | 16.11531 | 97.14850 | 33933 ft | 462 kts | 330° |
| 2026-05-04 02:21 | 16.17246 | 97.11884 | 33932 ft | 462 kts | 330° |
| 2026-05-04 02:22 | 16.22999 | 97.08896 | 33928 ft | 462 kts | 330° |
| 2026-05-04 02:22 | 16.28749 | 97.05907 | 33928 ft | 462 kts | 331° |
| 2026-05-04 02:23 | 16.34509 | 97.02912 | 33929 ft | 462 kts | 331° |
| 2026-05-04 02:23 | 16.40255 | 96.99921 | 33935 ft | 462 kts | 331° |
| 2026-05-04 02:24 | 16.45999 | 96.96930 | 33928 ft | 461 kts | 331° |
| 2026-05-04 02:24 | 16.51745 | 96.93936 | 33929 ft | 461 kts | 331° |
| 2026-05-04 02:25 | 16.57478 | 96.90946 | 33929 ft | 461 kts | 331° |
| 2026-05-04 02:25 | 16.63208 | 96.87956 | 33931 ft | 460 kts | 331° |
| 2026-05-04 02:26 | 16.68934 | 96.84966 | 33926 ft | 460 kts | 331° |
| 2026-05-04 02:26 | 16.74656 | 96.81976 | 33924 ft | 459 kts | 332° |
| 2026-05-04 02:27 | 16.80370 | 96.78988 | 33924 ft | 459 kts | 332° |
| 2026-05-04 02:27 | 16.86074 | 96.76004 | 33929 ft | 459 kts | 331° |
| 2026-05-04 02:28 | 16.91778 | 96.73017 | 33923 ft | 459 kts | 332° |
| 2026-05-04 02:28 | 16.97442 | 96.70049 | 33925 ft | 458 kts | 331° |
| 2026-05-04 02:29 | 17.03139 | 96.67062 | 33922 ft | 458 kts | 331° |
| 2026-05-04 02:29 | 17.08834 | 96.64074 | 33923 ft | 458 kts | 331° |
| 2026-05-04 02:30 | 17.14526 | 96.61085 | 33923 ft | 457 kts | 331° |
| 2026-05-04 02:30 | 17.20217 | 96.58094 | 33926 ft | 458 kts | 331° |
| 2026-05-04 02:31 | 17.25905 | 96.55103 | 33927 ft | 457 kts | 331° |
| 2026-05-04 02:31 | 17.31543 | 96.52015 | 33922 ft | 456 kts | 325° |
| 2026-05-04 02:32 | 17.36412 | 96.47852 | 33929 ft | 452 kts | 316° |
| 2026-05-04 02:32 | 17.41057 | 96.43394 | 33920 ft | 452 kts | 316° |
| 2026-05-04 02:33 | 17.45700 | 96.38961 | 33928 ft | 452 kts | 316° |
| 2026-05-04 02:33 | 17.50370 | 96.34547 | 33931 ft | 452 kts | 316° |
| 2026-05-04 02:34 | 17.55046 | 96.30143 | 33926 ft | 452 kts | 316° |
| 2026-05-04 02:34 | 17.59732 | 96.25729 | 33923 ft | 452 kts | 316° |
| 2026-05-04 02:35 | 17.64408 | 96.21321 | 33927 ft | 452 kts | 316° |
| 2026-05-04 02:35 | 17.69084 | 96.16909 | 33931 ft | 452 kts | 316° |
| 2026-05-04 02:36 | 17.73759 | 96.12494 | 33929 ft | 452 kts | 316° |
| 2026-05-04 02:36 | 17.78430 | 96.08078 | 33929 ft | 452 kts | 316° |
| 2026-05-04 02:37 | 17.83097 | 96.03664 | 33925 ft | 452 kts | 316° |
| 2026-05-04 02:37 | 17.87767 | 95.99243 | 33924 ft | 452 kts | 316° |
| 2026-05-04 02:38 | 17.92434 | 95.94823 | 33935 ft | 452 kts | 316° |
| 2026-05-04 02:38 | 17.97073 | 95.90426 | 33929 ft | 452 kts | 316° |
| 2026-05-04 02:39 | 18.01744 | 95.85995 | 33926 ft | 452 kts | 316° |
| 2026-05-04 02:39 | 18.06405 | 95.81569 | 33932 ft | 452 kts | 316° |
| 2026-05-04 02:40 | 18.11064 | 95.77142 | 33929 ft | 452 kts | 316° |
| 2026-05-04 02:40 | 18.15725 | 95.72711 | 33933 ft | 451 kts | 316° |
| 2026-05-04 02:41 | 18.20376 | 95.68286 | 33926 ft | 451 kts | 316° |
| 2026-05-04 02:41 | 18.25031 | 95.63853 | 33921 ft | 451 kts | 316° |
| 2026-05-04 02:42 | 18.29677 | 95.59425 | 33927 ft | 450 kts | 316° |
| 2026-05-04 02:42 | 18.34316 | 95.55001 | 33927 ft | 450 kts | 316° |
| 2026-05-04 02:43 | 18.38950 | 95.50578 | 33923 ft | 450 kts | 316° |
| 2026-05-04 02:43 | 18.43578 | 95.46157 | 33929 ft | 449 kts | 316° |
| 2026-05-04 02:44 | 18.48247 | 95.41764 | 33928 ft | 449 kts | 317° |
| 2026-05-04 02:44 | 18.52968 | 95.37459 | 33930 ft | 449 kts | 317° |
| 2026-05-04 02:45 | 18.57699 | 95.33147 | 33932 ft | 449 kts | 317° |
| 2026-05-04 02:45 | 18.62414 | 95.28829 | 33929 ft | 449 kts | 317° |
| 2026-05-04 02:46 | 18.67092 | 95.24532 | 33927 ft | 449 kts | 317° |
| 2026-05-04 02:46 | 18.71802 | 95.20201 | 33931 ft | 449 kts | 317° |
| 2026-05-04 02:47 | 18.76503 | 95.15874 | 33938 ft | 448 kts | 317° |
| 2026-05-04 02:47 | 18.81203 | 95.11547 | 33934 ft | 448 kts | 317° |
| 2026-05-04 02:48 | 18.85905 | 95.07214 | 33941 ft | 448 kts | 317° |
| 2026-05-04 02:48 | 18.90604 | 95.02880 | 33937 ft | 448 kts | 317° |
| 2026-05-04 02:49 | 18.95297 | 94.98548 | 33941 ft | 448 kts | 317° |
| 2026-05-04 02:49 | 18.99965 | 94.94236 | 33945 ft | 448 kts | 317° |
| 2026-05-04 02:50 | 19.04653 | 94.89902 | 33946 ft | 448 kts | 317° |
| 2026-05-04 02:50 | 19.09351 | 94.85556 | 33949 ft | 448 kts | 316° |
| 2026-05-04 02:51 | 19.14046 | 94.81209 | 33946 ft | 448 kts | 316° |
| 2026-05-04 02:51 | 19.18733 | 94.76865 | 33952 ft | 448 kts | 316° |
| 2026-05-04 02:52 | 19.23417 | 94.72521 | 33953 ft | 448 kts | 316° |
| 2026-05-04 02:52 | 19.28071 | 94.68174 | 33954 ft | 447 kts | 316° |
| 2026-05-04 02:53 | 19.32695 | 94.63745 | 33965 ft | 447 kts | 315° |
| 2026-05-04 02:53 | 19.37291 | 94.59321 | 33963 ft | 446 kts | 315° |
| 2026-05-04 02:54 | 19.41891 | 94.54901 | 33959 ft | 446 kts | 315° |
| 2026-05-04 02:54 | 19.46493 | 94.50482 | 33937 ft | 445 kts | 315° |
| 2026-05-04 02:55 | 19.53344 | 94.43904 | 33967 ft | 445 kts | 315° |
| 2026-05-04 02:56 | 19.57928 | 94.39496 | 33956 ft | 445 kts | 315° |
| 2026-05-04 02:56 | 19.62509 | 94.35088 | 33965 ft | 445 kts | 315° |
| 2026-05-04 02:57 | 19.67090 | 94.30676 | 33956 ft | 445 kts | 315° |
| 2026-05-04 02:57 | 19.71679 | 94.26254 | 33970 ft | 446 kts | 315° |
| 2026-05-04 02:58 | 19.76269 | 94.21826 | 33955 ft | 446 kts | 315° |
| 2026-05-04 02:58 | 19.80849 | 94.17406 | 33958 ft | 444 kts | 315° |
| 2026-05-04 02:59 | 19.85427 | 94.12982 | 33953 ft | 445 kts | 315° |
| 2026-05-04 02:59 | 19.90005 | 94.08556 | 33966 ft | 445 kts | 315° |
| 2026-05-04 03:00 | 19.94598 | 94.04110 | 33953 ft | 446 kts | 315° |
| 2026-05-04 03:00 | 19.99187 | 93.99666 | 33958 ft | 446 kts | 315° |
| 2026-05-04 03:01 | 20.03778 | 93.95216 | 33961 ft | 447 kts | 315° |
| 2026-05-04 03:01 | 20.08371 | 93.90760 | 33962 ft | 448 kts | 315° |
| 2026-05-04 03:02 | 20.12971 | 93.86294 | 33961 ft | 448 kts | 315° |
| 2026-05-04 03:02 | 20.17553 | 93.81842 | 33948 ft | 448 kts | 315° |
| 2026-05-04 03:03 | 20.22152 | 93.77369 | 33956 ft | 448 kts | 315° |
| 2026-05-04 03:03 | 20.26752 | 93.72892 | 33960 ft | 448 kts | 315° |
| 2026-05-04 03:04 | 20.31351 | 93.68411 | 33956 ft | 448 kts | 315° |
| 2026-05-04 03:04 | 20.35176 | 93.64682 | 33955 ft | 448 kts | 315° |
| 2026-05-04 03:05 | 20.40551 | 93.59437 | 33957 ft | 448 kts | 314° |
| 2026-05-04 03:05 | 20.44402 | 93.55677 | 33949 ft | 448 kts | 314° |
| 2026-05-04 03:06 | 20.48969 | 93.51214 | 33950 ft | 448 kts | 314° |
| 2026-05-04 03:06 | 20.53565 | 93.46718 | 33946 ft | 448 kts | 314° |
| 2026-05-04 03:07 | 20.58155 | 93.42225 | 33945 ft | 447 kts | 314° |
| 2026-05-04 03:07 | 20.62741 | 93.37730 | 33954 ft | 448 kts | 314° |
| 2026-05-04 03:08 | 20.67331 | 93.33229 | 33946 ft | 448 kts | 314° |
| 2026-05-04 03:08 | 20.71913 | 93.28732 | 33936 ft | 448 kts | 314° |
| 2026-05-04 03:09 | 20.76502 | 93.24224 | 33937 ft | 447 kts | 314° |
| 2026-05-04 03:09 | 20.81084 | 93.19719 | 33933 ft | 447 kts | 314° |
| 2026-05-04 03:10 | 20.85656 | 93.15220 | 33933 ft | 447 kts | 314° |
| 2026-05-04 03:10 | 20.90232 | 93.10712 | 33934 ft | 447 kts | 314° |
| 2026-05-04 03:11 | 20.94801 | 93.06209 | 33934 ft | 446 kts | 314° |
| 2026-05-04 03:11 | 20.99331 | 93.01739 | 33931 ft | 446 kts | 314° |
| 2026-05-04 03:12 | 21.03890 | 92.97237 | 33928 ft | 446 kts | 314° |
| 2026-05-04 03:12 | 21.08448 | 92.92732 | 33936 ft | 446 kts | 314° |
| 2026-05-04 03:13 | 21.13003 | 92.88225 | 33933 ft | 446 kts | 314° |
| 2026-05-04 03:13 | 21.17560 | 92.83714 | 33923 ft | 446 kts | 314° |
| 2026-05-04 03:14 | 21.22111 | 92.79204 | 33932 ft | 445 kts | 314° |
| 2026-05-04 03:14 | 21.26648 | 92.74704 | 33925 ft | 444 kts | 314° |
| 2026-05-04 03:15 | 21.31180 | 92.70206 | 33928 ft | 444 kts | 314° |
| 2026-05-04 03:15 | 21.35747 | 92.65751 | 33917 ft | 444 kts | 316° |
| 2026-05-04 03:16 | 21.40485 | 92.61518 | 33923 ft | 444 kts | 317° |
| 2026-05-04 03:16 | 21.45257 | 92.57309 | 33921 ft | 444 kts | 317° |
| 2026-05-04 03:17 | 21.50003 | 92.53074 | 33918 ft | 443 kts | 317° |
| 2026-05-04 03:17 | 21.54724 | 92.48827 | 33923 ft | 442 kts | 316° |
| 2026-05-04 03:18 | 21.59442 | 92.44567 | 33920 ft | 443 kts | 316° |
| 2026-05-04 03:18 | 21.64160 | 92.40304 | 33915 ft | 444 kts | 316° |
| 2026-05-04 03:19 | 21.68894 | 92.36022 | 33918 ft | 444 kts | 316° |
| 2026-05-04 03:19 | 21.73596 | 92.31768 | 33918 ft | 445 kts | 316° |
| 2026-05-04 03:20 | 21.78338 | 92.27473 | 33906 ft | 445 kts | 316° |
| 2026-05-04 03:20 | 21.83079 | 92.23176 | 33930 ft | 446 kts | 316° |
| 2026-05-04 03:21 | 21.87825 | 92.18869 | 33916 ft | 446 kts | 316° |
| 2026-05-04 03:21 | 21.92574 | 92.14556 | 33915 ft | 447 kts | 316° |
| 2026-05-04 03:22 | 21.97328 | 92.10235 | 33916 ft | 447 kts | 316° |
| 2026-05-04 03:22 | 22.02078 | 92.05914 | 33921 ft | 447 kts | 317° |
| 2026-05-04 03:23 | 22.06833 | 92.01585 | 33927 ft | 447 kts | 317° |
| 2026-05-04 03:23 | 22.11583 | 91.97255 | 33932 ft | 447 kts | 317° |
| 2026-05-04 03:24 | 22.16339 | 91.92917 | 33933 ft | 448 kts | 317° |
| 2026-05-04 03:24 | 22.21117 | 91.88552 | 33334 ft | 453 kts | 316° |
| 2026-05-04 03:24 | 22.23513 | 91.86363 | 32741 ft | 451 kts | 316° |
| 2026-05-04 03:25 | 22.25893 | 91.84189 | 32306 ft | 445 kts | 316° |
| 2026-05-04 03:25 | 22.28244 | 91.82041 | 31823 ft | 441 kts | 316° |
| 2026-05-04 03:25 | 22.30578 | 91.79907 | 31356 ft | 437 kts | 316° |
| 2026-05-04 03:25 | 22.32887 | 91.77794 | 30894 ft | 434 kts | 316° |
| 2026-05-04 03:26 | 22.35186 | 91.75688 | 30408 ft | 431 kts | 316° |
| 2026-05-04 03:26 | 22.37460 | 91.73605 | 29932 ft | 428 kts | 316° |
| 2026-05-04 03:26 | 22.39697 | 91.71554 | 29395 ft | 425 kts | 316° |
| 2026-05-04 03:26 | 22.41937 | 91.69500 | 28890 ft | 420 kts | 316° |
| 2026-05-04 03:27 | 22.44184 | 91.67439 | 28394 ft | 416 kts | 316° |
| 2026-05-04 03:27 | 22.46366 | 91.65436 | 27924 ft | 413 kts | 316° |
| 2026-05-04 03:27 | 22.48530 | 91.63449 | 27457 ft | 409 kts | 316° |
| 2026-05-04 03:27 | 22.50689 | 91.61466 | 26998 ft | 406 kts | 316° |
| 2026-05-04 03:28 | 22.52831 | 91.59497 | 26536 ft | 403 kts | 316° |
| 2026-05-04 03:28 | 22.54953 | 91.57547 | 26172 ft | 398 kts | 316° |
| 2026-05-04 03:28 | 22.57043 | 91.55626 | 25943 ft | 390 kts | 316° |
| 2026-05-04 03:28 | 22.59107 | 91.53727 | 25718 ft | 391 kts | 316° |
| 2026-05-04 03:29 | 22.61202 | 91.51794 | 25510 ft | 399 kts | 316° |
| 2026-05-04 03:29 | 22.63322 | 91.49837 | 25279 ft | 402 kts | 316° |
| 2026-05-04 03:29 | 22.65444 | 91.47880 | 25054 ft | 399 kts | 316° |
| 2026-05-04 03:29 | 22.67547 | 91.45941 | 24825 ft | 396 kts | 316° |
| 2026-05-04 03:30 | 22.69640 | 91.44010 | 24602 ft | 394 kts | 316° |
| 2026-05-04 03:30 | 22.71721 | 91.42089 | 24377 ft | 392 kts | 316° |
| 2026-05-04 03:30 | 22.73788 | 91.40179 | 24162 ft | 391 kts | 316° |
| 2026-05-04 03:30 | 22.75857 | 91.38267 | 23950 ft | 390 kts | 316° |
| 2026-05-04 03:31 | 22.77917 | 91.36362 | 23735 ft | 389 kts | 316° |
| 2026-05-04 03:31 | 22.79974 | 91.34459 | 23519 ft | 389 kts | 316° |
| 2026-05-04 03:31 | 22.82029 | 91.32556 | 23265 ft | 389 kts | 316° |
| 2026-05-04 03:31 | 22.84088 | 91.30649 | 23007 ft | 388 kts | 316° |
| 2026-05-04 03:32 | 22.86137 | 91.28751 | 22755 ft | 388 kts | 316° |
| 2026-05-04 03:32 | 22.88190 | 91.26849 | 22503 ft | 387 kts | 316° |
| 2026-05-04 03:32 | 22.90232 | 91.24956 | 22252 ft | 386 kts | 316° |
| 2026-05-04 03:32 | 22.92273 | 91.23064 | 21999 ft | 385 kts | 316° |
| 2026-05-04 03:33 | 22.94289 | 91.21194 | 21752 ft | 383 kts | 316° |
| 2026-05-04 03:33 | 22.96320 | 91.19308 | 21506 ft | 381 kts | 316° |
| 2026-05-04 03:33 | 22.98329 | 91.17444 | 21258 ft | 379 kts | 316° |
| 2026-05-04 03:33 | 23.00331 | 91.15583 | 21008 ft | 377 kts | 316° |
| 2026-05-04 03:34 | 23.02316 | 91.13739 | 20792 ft | 375 kts | 316° |
| 2026-05-04 03:34 | 23.04295 | 91.11899 | 20549 ft | 373 kts | 316° |
| 2026-05-04 03:34 | 23.06262 | 91.10070 | 20306 ft | 371 kts | 316° |
| 2026-05-04 03:34 | 23.08222 | 91.08246 | 20072 ft | 370 kts | 317° |
| 2026-05-04 03:35 | 23.10168 | 91.06434 | 19843 ft | 368 kts | 317° |
| 2026-05-04 03:35 | 23.12109 | 91.04626 | 19606 ft | 367 kts | 317° |
| 2026-05-04 03:35 | 23.14039 | 91.02828 | 19376 ft | 365 kts | 317° |
| 2026-05-04 03:35 | 23.15964 | 91.01034 | 19152 ft | 364 kts | 317° |
| 2026-05-04 03:36 | 23.17857 | 90.99270 | 18936 ft | 362 kts | 317° |
| 2026-05-04 03:36 | 23.19809 | 90.97485 | 18702 ft | 361 kts | 318° |
| 2026-05-04 03:36 | 23.21728 | 90.95772 | 18483 ft | 360 kts | 318° |
| 2026-05-04 03:36 | 23.23687 | 90.94031 | 18260 ft | 359 kts | 318° |
| 2026-05-04 03:37 | 23.25589 | 90.92338 | 18008 ft | 358 kts | 318° |
| 2026-05-04 03:37 | 23.27512 | 90.90621 | 17753 ft | 356 kts | 318° |
| 2026-05-04 03:37 | 23.29420 | 90.88913 | 17497 ft | 355 kts | 318° |
| 2026-05-04 03:37 | 23.31322 | 90.87209 | 17246 ft | 352 kts | 318° |
| 2026-05-04 03:38 | 23.33207 | 90.85529 | 16995 ft | 350 kts | 320° |
| 2026-05-04 03:38 | 23.35329 | 90.84222 | 16735 ft | 353 kts | 335° |
| 2026-05-04 03:38 | 23.37617 | 90.83259 | 16503 ft | 353 kts | 337° |
| 2026-05-04 03:38 | 23.39909 | 90.82318 | 16257 ft | 352 kts | 336° |
| 2026-05-04 03:39 | 23.42194 | 90.81364 | 16021 ft | 352 kts | 336° |
| 2026-05-04 03:39 | 23.44475 | 90.80392 | 15789 ft | 351 kts | 336° |
| 2026-05-04 03:39 | 23.46745 | 90.79412 | 15544 ft | 350 kts | 336° |
| 2026-05-04 03:39 | 23.49005 | 90.78432 | 15305 ft | 349 kts | 335° |
| 2026-05-04 03:40 | 23.51234 | 90.77405 | 15074 ft | 347 kts | 334° |
| 2026-05-04 03:40 | 23.53436 | 90.76342 | 14837 ft | 345 kts | 334° |
| 2026-05-04 03:40 | 23.55628 | 90.75273 | 14602 ft | 344 kts | 334° |
| 2026-05-04 03:40 | 23.57807 | 90.74213 | 14374 ft | 342 kts | 334° |
| 2026-05-04 03:41 | 23.59979 | 90.73160 | 14149 ft | 341 kts | 334° |
| 2026-05-04 03:41 | 23.62144 | 90.72115 | 13924 ft | 340 kts | 334° |
| 2026-05-04 03:41 | 23.64273 | 90.71088 | 13697 ft | 339 kts | 334° |
| 2026-05-04 03:41 | 23.66421 | 90.70053 | 13442 ft | 337 kts | 334° |
| 2026-05-04 03:42 | 23.68562 | 90.69022 | 13186 ft | 336 kts | 334° |
| 2026-05-04 03:42 | 23.70698 | 90.67993 | 12935 ft | 335 kts | 334° |
| 2026-05-04 03:42 | 23.72693 | 90.66724 | 12617 ft | 331 kts | 320° |
| 2026-05-04 03:42 | 23.74436 | 90.65123 | 12267 ft | 326 kts | 317° |
| 2026-05-04 03:43 | 23.76151 | 90.63519 | 11885 ft | 324 kts | 318° |
| 2026-05-04 03:43 | 23.77876 | 90.61935 | 11511 ft | 322 kts | 318° |
| 2026-05-04 03:43 | 23.79595 | 90.60377 | 11129 ft | 320 kts | 319° |
| 2026-05-04 03:43 | 23.81292 | 90.58853 | 10772 ft | 319 kts | 319° |
| 2026-05-04 03:44 | 23.83024 | 90.57361 | 10475 ft | 315 kts | 320° |
| 2026-05-04 03:44 | 23.84727 | 90.55918 | 10354 ft | 305 kts | 320° |
| 2026-05-04 03:44 | 23.86381 | 90.54513 | 10216 ft | 297 kts | 320° |
| 2026-05-04 03:44 | 23.87984 | 90.53147 | 10089 ft | 288 kts | 320° |
| 2026-05-04 03:45 | 23.89546 | 90.51813 | 9968 ft | 280 kts | 320° |
| 2026-05-04 03:45 | 23.91079 | 90.50520 | 9699 ft | 278 kts | 321° |
| 2026-05-04 03:45 | 23.92627 | 90.49252 | 9416 ft | 277 kts | 321° |
| 2026-05-04 03:45 | 23.94165 | 90.47998 | 9126 ft | 275 kts | 321° |
| 2026-05-04 03:46 | 23.95696 | 90.46749 | 8838 ft | 274 kts | 321° |
| 2026-05-04 03:46 | 23.97221 | 90.45502 | 8543 ft | 273 kts | 321° |
| 2026-05-04 03:46 | 23.98736 | 90.44262 | 8258 ft | 272 kts | 321° |
| 2026-05-04 03:46 | 24.00252 | 90.43021 | 7978 ft | 271 kts | 321° |
| 2026-05-04 03:47 | 24.01758 | 90.41786 | 7699 ft | 270 kts | 321° |
| 2026-05-04 03:47 | 24.03262 | 90.40553 | 7412 ft | 270 kts | 321° |
| 2026-05-04 03:47 | 24.04759 | 90.39325 | 7135 ft | 269 kts | 321° |
| 2026-05-04 03:47 | 24.06275 | 90.38108 | 6800 ft | 271 kts | 322° |
| 2026-05-04 03:48 | 24.07782 | 90.36914 | 6654 ft | 265 kts | 322° |
| 2026-05-04 03:48 | 24.09256 | 90.35747 | 6535 ft | 257 kts | 322° |
| 2026-05-04 03:48 | 24.10662 | 90.34633 | 6483 ft | 242 kts | 322° |
| 2026-05-04 03:48 | 24.11991 | 90.33572 | 6400 ft | 230 kts | 319° |
| 2026-05-04 03:49 | 24.12903 | 90.32227 | 6271 ft | 215 kts | 286° |
| 2026-05-04 03:49 | 24.13035 | 90.30659 | 6071 ft | 205 kts | 260° |
| 2026-05-04 03:49 | 24.12575 | 90.29213 | 5846 ft | 201 kts | 238° |
| 2026-05-04 03:49 | 24.11787 | 90.27960 | 5649 ft | 199 kts | 233° |
| 2026-05-04 03:50 | 24.10956 | 90.26741 | 5422 ft | 201 kts | 233° |
| 2026-05-04 03:50 | 24.10401 | 90.25926 | 5286 ft | 202 kts | 233° |
| 2026-05-04 03:50 | 24.09558 | 90.24685 | 5108 ft | 203 kts | 233° |
| 2026-05-04 03:50 | 24.08427 | 90.23096 | 4825 ft | 196 kts | 221° |
| 2026-05-04 03:51 | 24.07224 | 90.22495 | 4608 ft | 191 kts | 186° |
| 2026-05-04 03:51 | 24.06343 | 90.22549 | 4460 ft | 188 kts | 166° |
| 2026-05-04 03:51 | 24.05195 | 90.23180 | 4273 ft | 183 kts | 147° |
| 2026-05-04 03:51 | 24.04161 | 90.23981 | 4078 ft | 181 kts | 146° |
| 2026-05-04 03:52 | 24.03144 | 90.24781 | 3867 ft | 179 kts | 146° |